createdAt,value
2018-06-22T00:00:45.685Z,7.23
2018-06-22T00:05:48.749Z,6.20
2018-06-22T00:10:51.786Z,9.77
2018-06-22T00:15:54.858Z,10.93
2018-06-22T00:20:57.955Z,8.83
2018-06-22T00:26:02.063Z,7.40
2018-06-22T00:31:05.125Z,7.20
2018-06-22T00:36:08.173Z,6.20
2018-06-22T00:41:11.245Z,11.00
2018-06-22T00:46:14.297Z,10.17
2018-06-22T00:51:17.361Z,12.00
2018-06-22T00:56:20.421Z,9.07
2018-06-22T01:01:23.489Z,7.53
2018-06-22T01:06:26.559Z,7.93
2018-06-22T01:11:29.685Z,10.73
2018-06-22T01:16:32.745Z,9.00
2018-06-22T01:21:36.394Z,12.70
2018-06-22T01:26:39.438Z,9.30
2018-06-22T01:31:42.519Z,10.50
2018-06-22T01:36:45.577Z,8.03
2018-06-22T01:41:48.650Z,9.87
2018-06-22T01:46:51.697Z,8.13
2018-06-22T01:51:54.770Z,8.27
2018-06-22T01:56:57.922Z,8.90
2018-06-22T02:02:01.001Z,9.27
2018-06-22T02:07:04.073Z,9.03
2018-06-22T02:12:07.133Z,10.07
2018-06-22T02:17:10.265Z,11.20
2018-06-22T02:22:13.314Z,7.13
2018-06-22T02:27:16.385Z,12.77
2018-06-22T02:32:19.472Z,11.17
2018-06-22T02:37:22.649Z,15.63
2018-06-22T02:42:25.750Z,5.70
2018-06-22T02:47:28.768Z,10.27
2018-06-22T02:52:31.838Z,9.73
2018-06-22T02:57:34.935Z,14.57
2018-06-22T03:02:37.985Z,10.57
2018-06-22T03:07:41.046Z,9.30
2018-06-22T03:12:44.093Z,13.70
2018-06-22T03:17:47.153Z,11.17
2018-06-22T03:22:50.239Z,11.90
2018-06-22T03:27:53.309Z,9.00
2018-06-22T03:32:56.369Z,7.83
2018-06-22T03:37:59.469Z,9.93
2018-06-22T03:43:02.541Z,8.20
2018-06-22T03:48:05.701Z,9.90
2018-06-22T03:53:08.834Z,8.73
2018-06-22T03:58:11.905Z,12.43
2018-06-22T04:03:15.090Z,9.80
2018-06-22T04:08:18.218Z,18.43
2018-06-22T04:13:21.221Z,13.10
2018-06-22T04:18:24.280Z,13.60
2018-06-22T04:23:27.377Z,12.20
2018-06-22T04:28:30.437Z,13.70
2018-06-22T04:33:33.512Z,10.77
2018-06-22T04:38:36.614Z,9.67
2018-06-22T04:43:42.786Z,8.80
2018-06-22T04:48:45.989Z,10.20
2018-06-22T04:53:49.078Z,12.93
2018-06-22T04:58:52.140Z,6.93
2018-06-22T05:03:55.197Z,8.20
2018-06-22T05:08:58.056Z,9.13
2018-06-22T05:14:12.849Z,6.57
2018-06-22T05:19:15.941Z,8.23
2018-06-22T05:24:19.032Z,8.13
2018-06-22T05:29:23.243Z,15.40
2018-06-22T05:34:26.309Z,14.57
2018-06-22T05:39:29.621Z,12.67
2018-06-22T05:44:34.121Z,15.37
2018-06-22T05:49:37.193Z,13.20
2018-06-22T05:54:44.052Z,16.77
2018-06-22T05:59:47.129Z,16.30
2018-06-22T06:04:50.610Z,13.70
2018-06-22T06:09:53.681Z,17.73
2018-06-22T06:14:56.846Z,11.77
2018-06-22T06:19:59.974Z,10.57
2018-06-22T06:25:02.985Z,17.90
2018-06-22T06:30:06.945Z,9.63
2018-06-22T06:35:10.013Z,8.27
2018-06-22T06:40:14.414Z,13.47
2018-06-22T06:45:17.474Z,9.47
2018-06-22T06:50:20.546Z,8.50
2018-06-22T06:55:24.976Z,11.97
2018-06-22T07:00:28.064Z,15.17
2018-06-22T07:05:31.108Z,8.47
2018-06-22T07:10:34.209Z,11.17
2018-06-22T07:15:39.157Z,12.87
2018-06-22T07:20:42.233Z,5.77
2018-06-22T07:25:45.317Z,8.37
2018-06-22T07:30:48.365Z,8.67
2018-06-22T07:35:51.460Z,7.93
2018-06-22T07:40:54.282Z,8.30
2018-06-22T07:45:57.370Z,8.00
2018-06-22T07:51:00.436Z,10.40
2018-06-22T07:56:03.508Z,13.43
2018-06-22T08:01:06.773Z,11.97
2018-06-22T08:06:09.894Z,9.10
2018-06-22T08:11:15.178Z,9.27
2018-06-22T08:16:18.242Z,15.53
2018-06-22T08:21:21.321Z,10.60
2018-06-22T08:26:24.401Z,12.40
2018-06-22T08:31:27.459Z,8.47
2018-06-22T08:36:30.530Z,12.00
2018-06-22T08:41:34.616Z,8.73
2018-06-22T08:46:37.668Z,7.47
2018-06-22T08:51:41.453Z,12.50
2018-06-22T08:56:44.513Z,5.93
2018-06-22T09:01:48.682Z,5.73
2018-06-22T09:06:51.763Z,7.57
2018-06-22T09:11:54.829Z,7.07
2018-06-22T09:16:58.018Z,6.77
2018-06-22T09:22:01.109Z,5.47
2018-06-22T09:27:04.211Z,5.30
2018-06-22T09:32:07.277Z,2.63
2018-06-22T09:37:10.333Z,3.73
2018-06-22T09:42:13.409Z,3.43
2018-06-22T09:47:16.484Z,4.13
2018-06-22T09:52:19.539Z,3.50
2018-06-22T09:57:22.609Z,3.83
2018-06-22T10:02:25.738Z,3.13
2018-06-22T10:07:28.806Z,4.40
2018-06-22T10:12:31.861Z,4.50
2018-06-22T10:17:34.954Z,9.10
2018-06-22T10:22:38.017Z,3.50
2018-06-22T10:32:57.084Z,7.80
2018-06-22T10:38:00.027Z,8.63
2018-06-22T10:43:03.095Z,7.13
2018-06-22T10:48:06.178Z,5.17
2018-06-22T10:53:09.234Z,9.67
2018-06-22T10:58:17.550Z,7.57
2018-06-22T11:03:20.604Z,4.00
2018-06-22T11:08:23.653Z,6.10
2018-06-22T11:13:26.735Z,8.17
2018-06-22T11:18:29.826Z,4.87
2018-06-22T11:23:32.891Z,4.67
2018-06-22T11:28:35.975Z,4.83
2018-06-22T11:33:39.242Z,4.93
2018-06-22T11:38:42.317Z,4.20
2018-06-22T11:43:45.828Z,5.67
2018-06-22T11:48:48.866Z,5.93
2018-06-22T11:53:51.960Z,5.27
2018-06-22T11:59:15.581Z,5.90
2018-06-22T12:04:18.641Z,5.03
2018-06-22T12:09:21.729Z,2.70
2018-06-22T12:14:35.593Z,1.93
2018-06-22T12:19:38.670Z,3.33
2018-06-22T12:24:41.717Z,3.07
2018-06-22T12:29:44.769Z,1.97
2018-06-22T12:34:47.853Z,3.37
2018-06-22T12:39:50.932Z,4.77
2018-06-22T12:44:54.132Z,3.63
2018-06-22T12:49:57.201Z,4.00
2018-06-22T12:55:01.175Z,2.63
2018-06-22T13:00:04.785Z,7.40
2018-06-22T13:05:22.535Z,6.30
2018-06-22T13:10:25.973Z,8.20
2018-06-22T13:20:50.621Z,4.47
2018-06-22T13:25:53.820Z,6.20
2018-06-22T13:31:01.549Z,5.93
2018-06-22T13:36:07.397Z,3.80
2018-06-22T13:41:18.969Z,4.37
2018-06-22T13:46:22.542Z,5.80
2018-06-22T13:51:26.518Z,7.60
2018-06-22T13:56:36.325Z,4.97
2018-06-22T14:01:39.388Z,5.50
2018-06-22T14:06:47.987Z,6.90
2018-06-22T14:11:51.733Z,5.53
2018-06-22T14:16:54.966Z,7.87
2018-06-22T14:22:04.996Z,4.70
2018-06-22T14:27:08.176Z,5.03
2018-06-22T14:32:11.304Z,3.50
2018-06-22T14:37:14.364Z,7.30
2018-06-22T14:42:17.485Z,4.90
2018-06-22T14:47:20.590Z,4.90
2018-06-22T14:52:27.661Z,7.57
2018-06-22T14:57:39.367Z,4.43
2018-06-22T15:02:50.229Z,6.70
2018-06-22T15:07:55.473Z,7.67
2018-06-22T15:12:58.598Z,6.47
2018-06-22T15:18:01.691Z,9.10
2018-06-22T15:23:18.904Z,6.97
2018-06-22T15:28:43.336Z,6.97
2018-06-22T15:33:53.018Z,8.87
2018-06-22T15:39:04.997Z,5.47
2018-06-22T15:55:15.881Z,5.83
2018-06-22T16:00:19.041Z,5.73
2018-06-22T16:05:22.171Z,8.00
2018-06-22T16:10:25.225Z,7.23
2018-06-22T16:15:33.901Z,6.80
2018-06-22T16:20:42.585Z,5.00
2018-06-22T16:25:51.429Z,6.63
2018-06-22T16:30:54.513Z,4.67
2018-06-22T16:35:58.015Z,5.43
2018-06-22T16:41:07.028Z,6.07
2018-06-22T16:46:11.868Z,5.87
2018-06-22T16:51:15.141Z,5.00
2018-06-22T16:56:18.446Z,3.07
2018-06-22T17:01:22.474Z,7.27
2018-06-22T17:06:25.587Z,4.20
2018-06-22T17:11:34.055Z,6.53
2018-06-22T17:16:42.641Z,5.77
2018-06-22T17:21:45.715Z,4.10
2018-06-22T17:26:48.761Z,5.40
2018-06-22T17:31:51.783Z,7.43
2018-06-22T17:37:02.217Z,5.13
2018-06-22T17:42:05.498Z,6.50
2018-06-22T17:47:08.816Z,5.53
2018-06-22T17:52:12.304Z,7.27
2018-06-22T17:58:19.033Z,8.83
2018-06-22T18:03:27.613Z,5.50
2018-06-22T18:08:36.937Z,10.50
2018-06-22T18:13:41.571Z,8.37
2018-06-22T18:18:44.642Z,13.70
2018-06-22T18:23:47.688Z,8.23
2018-06-22T18:28:50.823Z,7.13
2018-06-22T18:33:53.879Z,11.10
2018-06-22T18:38:56.988Z,13.03
2018-06-22T18:44:04.277Z,6.57
2018-06-22T18:49:07.321Z,6.47
2018-06-22T18:54:16.026Z,6.93
2018-06-22T18:59:24.482Z,7.07
2018-06-22T19:04:27.630Z,7.23
2018-06-22T19:09:32.758Z,6.33
2018-06-22T19:14:37.099Z,6.23
2018-06-22T19:19:40.455Z,6.90
2018-06-22T19:24:43.544Z,5.83
2018-06-22T19:35:15.340Z,10.83
2018-06-22T19:40:18.472Z,7.00
2018-06-22T19:45:28.544Z,8.50
2018-06-22T19:50:37.118Z,6.27
2018-06-22T19:55:40.694Z,9.17
2018-06-22T20:00:43.809Z,7.33
2018-06-22T20:05:49.129Z,8.00
2018-06-22T20:10:52.174Z,7.87
2018-06-22T20:15:55.253Z,8.87
2018-06-22T20:21:16.080Z,10.70
2018-06-22T20:26:20.220Z,13.20
2018-06-22T20:31:31.044Z,7.43
2018-06-22T20:36:39.697Z,8.73
2018-06-22T20:41:49.260Z,11.00
2018-06-22T20:46:57.948Z,7.97
2018-06-22T20:52:01.049Z,6.70
2018-06-22T20:57:04.082Z,5.40
2018-06-22T21:02:07.133Z,9.73
2018-06-22T21:07:10.252Z,7.20
2018-06-22T21:12:13.300Z,6.67
2018-06-22T21:17:16.136Z,9.87
2018-06-22T21:22:36.295Z,11.87
2018-06-22T21:27:44.929Z,12.90
2018-06-22T21:32:53.774Z,11.20
2018-06-22T21:38:02.581Z,9.77
2018-06-22T21:43:06.396Z,7.97
2018-06-22T21:48:10.245Z,8.20
2018-06-22T21:53:36.198Z,11.80
2018-06-22T21:58:39.261Z,9.30
2018-06-22T22:03:42.293Z,9.90
2018-06-22T22:08:57.645Z,14.10
2018-06-22T22:14:00.686Z,13.33
2018-06-22T22:19:08.165Z,12.80
2018-06-22T22:24:11.880Z,10.23
2018-06-22T22:29:15.577Z,9.97
2018-06-22T22:34:18.610Z,10.70
2018-06-22T22:39:21.653Z,13.17
2018-06-22T22:44:24.752Z,9.90
2018-06-22T22:49:36.297Z,16.90
2018-06-22T22:54:41.353Z,10.77
2018-06-22T22:59:44.397Z,16.50
2018-06-22T23:04:47.444Z,11.67
2018-06-22T23:09:50.485Z,12.30
2018-06-22T23:14:54.069Z,17.57
2018-06-22T23:19:57.112Z,15.13
2018-06-22T23:25:00.222Z,12.93
2018-06-22T23:30:03.765Z,11.20
2018-06-22T23:35:06.802Z,12.73
2018-06-22T23:40:09.850Z,16.37
2018-06-22T23:45:12.894Z,11.43
2018-06-22T23:50:39.725Z,16.20
2018-06-22T23:55:43.021Z,11.73
